createdAt,value
2023-11-28T00:01:09.611Z,9.07
2023-11-28T00:04:12.823Z,8.60
2023-11-28T00:07:17.442Z,8.65
2023-11-28T00:10:20.708Z,9.55
2023-11-28T00:13:24.065Z,10.18
2023-11-28T00:16:27.375Z,9.80
2023-11-28T00:19:31.387Z,9.07
2023-11-28T00:22:38.355Z,11.50
2023-11-28T00:25:41.554Z,8.70
2023-11-28T00:28:44.735Z,8.57
2023-11-28T00:31:49.541Z,7.57
2023-11-28T00:34:52.790Z,8.80
2023-11-28T00:37:58.798Z,7.88
2023-11-28T00:41:02.077Z,8.45
2023-11-28T00:44:05.698Z,8.55
2023-11-28T00:47:10.678Z,10.73
2023-11-28T00:50:14.635Z,9.00
2023-11-28T00:53:19.317Z,10.10
2023-11-28T00:56:22.936Z,8.88
2023-11-28T00:59:27.132Z,9.75
2023-11-28T01:02:30.921Z,8.37
2023-11-28T01:05:34.289Z,7.53
2023-11-28T01:08:40.734Z,7.97
2023-11-28T01:11:44.314Z,9.25
2023-11-28T01:14:47.827Z,12.43
2023-11-28T01:17:52.393Z,8.93
2023-11-28T01:20:55.664Z,11.13
2023-11-28T01:24:00.244Z,9.70
2023-11-28T01:27:03.535Z,9.10
2023-11-28T01:30:07.814Z,9.65
2023-11-28T01:33:11.018Z,10.13
2023-11-28T01:36:15.210Z,8.47
2023-11-28T01:39:20.297Z,10.52
2023-11-28T01:42:23.492Z,9.80
2023-11-28T01:45:27.146Z,11.20
2023-11-28T01:48:30.385Z,9.13
2023-11-28T01:51:33.557Z,9.73
2023-11-28T01:54:38.579Z,10.77
2023-11-28T01:57:42.795Z,11.57
2023-11-28T02:00:47.218Z,12.52
2023-11-28T02:03:52.006Z,9.73
2023-11-28T02:06:55.242Z,14.43
2023-11-28T02:10:00.307Z,12.63
2023-11-28T02:13:07.094Z,14.45
2023-11-28T02:16:12.325Z,11.35
2023-11-28T02:19:15.654Z,12.03
2023-11-28T02:22:19.856Z,12.30
2023-11-28T02:25:26.645Z,11.75
2023-11-28T02:28:31.374Z,12.32
2023-11-28T02:31:34.652Z,9.68
2023-11-28T02:34:37.929Z,9.37
2023-11-28T02:37:41.098Z,9.07
2023-11-28T02:40:44.453Z,9.93
2023-11-28T02:43:49.065Z,9.18
2023-11-28T02:46:52.349Z,8.93
2023-11-28T02:49:56.167Z,10.57
2023-11-28T02:52:59.588Z,9.03
2023-11-28T02:56:02.867Z,9.57
2023-11-28T02:59:07.482Z,9.65
2023-11-28T03:02:10.835Z,9.95
2023-11-28T03:05:14.186Z,9.57
2023-11-28T03:08:18.008Z,11.13
2023-11-28T03:11:23.661Z,10.88
2023-11-28T03:14:28.148Z,10.45
2023-11-28T03:17:31.679Z,11.45
2023-11-28T03:20:35.087Z,11.13
2023-11-28T03:23:38.325Z,10.70
2023-11-28T03:26:41.448Z,9.05
2023-11-28T03:29:46.023Z,11.30
2023-11-28T03:32:49.784Z,9.13
2023-11-28T03:35:53.066Z,6.83
2023-11-28T03:38:56.689Z,10.13
2023-11-28T03:41:59.866Z,8.43
2023-11-28T03:45:05.809Z,8.57
2023-11-28T03:48:09.236Z,8.93
2023-11-28T03:51:12.530Z,8.20
2023-11-28T03:54:15.765Z,7.40
2023-11-28T03:57:19.014Z,8.95
2023-11-28T04:00:23.867Z,8.73
2023-11-28T04:03:27.695Z,8.85
2023-11-28T04:06:31.388Z,8.57
2023-11-28T04:09:34.758Z,10.30
2023-11-28T04:12:37.968Z,12.75
2023-11-28T04:15:43.090Z,10.75
2023-11-28T04:18:52.219Z,9.63
2023-11-28T04:21:55.441Z,7.37
2023-11-28T04:24:58.578Z,12.23
2023-11-28T04:28:01.994Z,10.98
2023-11-28T04:31:07.908Z,8.30
2023-11-28T04:34:11.188Z,8.75
2023-11-28T04:37:14.393Z,9.53
2023-11-28T04:40:17.738Z,8.57
2023-11-28T04:43:20.856Z,7.40
2023-11-28T04:46:25.473Z,9.00
2023-11-28T04:49:29.021Z,10.02
2023-11-28T04:52:32.318Z,8.40
2023-11-28T04:55:35.881Z,9.70
2023-11-28T04:58:39.173Z,9.20
2023-11-28T05:01:47.349Z,9.27
2023-11-28T05:04:50.592Z,9.40
2023-11-28T05:07:54.586Z,8.47
2023-11-28T05:10:58.941Z,10.50
2023-11-28T05:14:02.374Z,11.30
2023-11-28T05:17:07.151Z,10.77
2023-11-28T05:20:13.980Z,10.70
2023-11-28T05:23:17.204Z,9.70
2023-11-28T05:26:20.476Z,9.33
2023-11-28T05:29:26.868Z,11.38
2023-11-28T05:32:31.468Z,9.13
2023-11-28T05:35:35.724Z,10.60
2023-11-28T05:38:39.057Z,10.67
2023-11-28T05:41:42.365Z,9.83
2023-11-28T05:44:45.640Z,9.70
2023-11-28T05:47:51.066Z,9.20
2023-11-28T05:50:54.425Z,9.73
2023-11-28T05:53:57.601Z,8.50
2023-11-28T05:57:00.941Z,9.67
2023-11-28T06:00:05.457Z,9.27
2023-11-28T06:03:13.072Z,8.05
2023-11-28T06:06:17.982Z,7.45
2023-11-28T06:09:24.517Z,8.10
2023-11-28T06:12:35.078Z,8.97
2023-11-28T06:15:38.311Z,6.57
2023-11-28T06:18:42.968Z,6.18
2023-11-28T06:21:48.540Z,7.18
2023-11-28T06:24:55.176Z,10.03
2023-11-28T06:28:01.377Z,6.43
2023-11-28T06:31:43.006Z,7.65
2023-11-28T06:35:55.054Z,6.55
2023-11-28T06:42:59.968Z,6.70
2023-11-28T07:16:46.968Z,9.05
2023-11-28T07:19:50.272Z,8.57
2023-11-28T07:22:53.538Z,7.10
2023-11-28T07:26:12.061Z,6.90
2023-11-28T07:29:32.913Z,6.55
2023-11-28T07:32:41.057Z,6.88
2023-11-28T07:35:45.077Z,6.47
2023-11-28T07:42:07.475Z,6.10
2023-11-28T07:49:23.216Z,5.40
2023-11-28T07:52:26.395Z,6.20
2023-11-28T07:55:33.653Z,8.30
2023-11-28T07:58:37.473Z,5.80
2023-11-28T08:05:21.200Z,7.20
2023-11-28T08:09:16.621Z,7.45
2023-11-28T08:12:44.878Z,5.90
2023-11-28T08:26:27.993Z,6.63
2023-11-28T08:34:51.956Z,6.07
2023-11-28T08:38:16.621Z,6.87
2023-11-28T08:56:45.994Z,6.60
2023-11-28T09:00:11.417Z,6.50
2023-11-28T09:03:47.129Z,8.18
2023-11-28T09:07:28.835Z,6.40
2023-11-28T09:59:43.513Z,6.93
2023-11-28T10:03:08.796Z,9.33
2023-11-28T10:28:58.831Z,6.00
2023-11-28T10:32:43.925Z,13.82
2023-11-28T11:03:40.904Z,6.43
2023-11-28T11:13:45.639Z,6.90
2023-11-28T11:17:12.890Z,7.03
2023-11-28T11:20:58.754Z,9.45
2023-11-28T11:25:03.575Z,7.38
2023-11-28T11:28:13.024Z,7.23
2023-11-28T11:35:49.892Z,8.85
2023-11-28T11:43:27.985Z,8.05
2023-11-28T11:47:11.255Z,8.27
2023-11-28T11:55:23.683Z,8.40
2023-11-28T11:59:19.671Z,7.07
2023-11-28T12:02:51.127Z,8.75
2023-11-28T12:06:59.391Z,8.40
2023-11-28T12:10:40.351Z,7.67
2023-11-28T12:13:57.769Z,6.03
2023-11-28T12:17:06.548Z,6.97
2023-11-28T12:20:36.612Z,6.35
2023-11-28T12:23:50.274Z,7.63
2023-11-28T12:27:04.068Z,7.80
2023-11-28T12:30:54.375Z,8.15
2023-11-28T12:34:15.756Z,8.63
2023-11-28T12:37:26.038Z,10.40
2023-11-28T12:40:40.315Z,9.17
2023-11-28T12:44:08.209Z,7.63
2023-11-28T12:48:24.295Z,7.82
2023-11-28T12:52:53.387Z,11.20
2023-11-28T12:57:07.492Z,7.93
2023-11-28T13:00:37.133Z,10.57
2023-11-28T13:04:10.157Z,8.27
2023-11-28T13:11:28.512Z,8.30
2023-11-28T13:15:35.365Z,7.82
2023-11-28T13:18:40.234Z,9.40
2023-11-28T13:21:43.535Z,8.50
2023-11-28T13:24:47.487Z,7.13
2023-11-28T13:32:09.866Z,9.15
2023-11-28T13:35:21.470Z,12.63
2023-11-28T13:38:28.182Z,8.90
2023-11-28T13:41:31.702Z,8.88
2023-11-28T13:44:35.412Z,8.10
2023-11-28T13:47:41.594Z,8.95
2023-11-28T13:50:46.557Z,9.53
2023-11-28T13:53:56.345Z,8.30
2023-11-28T14:00:50.444Z,9.38
2023-11-28T14:04:32.848Z,10.90
2023-11-28T14:12:45.093Z,11.00
2023-11-28T14:16:24.891Z,12.38
2023-11-28T14:19:31.629Z,14.43
2023-11-28T14:22:52.984Z,12.88
2023-11-28T14:26:14.208Z,11.63
2023-11-28T14:30:10.695Z,12.43
2023-11-28T14:33:27.892Z,10.75
2023-11-28T14:37:24.613Z,13.52
2023-11-28T14:40:27.873Z,10.82
2023-11-28T14:43:31.525Z,11.37
2023-11-28T14:46:36.251Z,10.43
2023-11-28T14:49:41.731Z,10.90
2023-11-28T14:52:45.464Z,12.35
2023-11-28T14:55:49.000Z,11.43
2023-11-28T14:58:53.128Z,12.27
2023-11-28T15:02:11.706Z,11.77
2023-11-28T15:05:32.635Z,11.13
2023-11-28T15:08:38.706Z,13.32
2023-11-28T15:11:42.065Z,14.70
2023-11-28T15:15:04.499Z,17.53
2023-11-28T15:22:45.194Z,18.85
2023-11-28T15:25:55.901Z,17.35
2023-11-28T15:29:29.021Z,17.17
2023-11-28T15:33:46.407Z,14.90
2023-11-28T15:37:18.352Z,17.90
2023-11-28T15:40:59.920Z,20.48
2023-11-28T15:44:14.963Z,18.08
2023-11-28T15:47:19.132Z,20.38
2023-11-28T15:50:22.937Z,20.50
2023-11-28T15:53:26.378Z,19.10
2023-11-28T15:56:31.914Z,19.48
2023-11-28T15:59:35.250Z,19.58
2023-11-28T16:02:40.070Z,18.73
2023-11-28T16:05:45.396Z,21.60
2023-11-28T16:08:50.690Z,18.47
2023-11-28T16:11:55.393Z,17.80
2023-11-28T16:14:58.840Z,19.65
2023-11-28T16:18:02.228Z,16.60
2023-11-28T16:21:08.497Z,16.47
2023-11-28T16:24:11.737Z,17.27
2023-11-28T16:27:17.130Z,17.63
2023-11-28T16:30:21.859Z,19.23
2023-11-28T16:33:25.274Z,16.45
2023-11-28T16:36:28.595Z,17.30
2023-11-28T16:39:32.815Z,23.53
2023-11-28T16:42:37.397Z,19.98
2023-11-28T16:45:41.407Z,20.73
2023-11-28T16:48:46.356Z,15.48
2023-11-28T16:51:49.989Z,17.10
2023-11-28T16:54:59.163Z,16.07
2023-11-28T16:58:04.287Z,17.52
2023-11-28T17:01:08.461Z,17.50
2023-11-28T17:04:11.746Z,14.30
2023-11-28T17:07:16.038Z,14.23
2023-11-28T17:10:19.303Z,11.60
2023-11-28T17:13:25.412Z,10.88
2023-11-28T17:16:28.701Z,12.68
2023-11-28T17:19:31.941Z,11.50
2023-11-28T17:22:35.631Z,11.83
2023-11-28T17:25:39.857Z,9.93
2023-11-28T17:28:45.482Z,12.15
2023-11-28T17:31:49.515Z,11.07
2023-11-28T17:34:53.222Z,11.20
2023-11-28T17:37:56.702Z,14.53
2023-11-28T17:40:59.939Z,14.13
2023-11-28T17:44:04.507Z,13.20
2023-11-28T17:47:07.846Z,15.93
2023-11-28T17:50:11.722Z,15.35
2023-11-28T17:53:15.022Z,14.90
2023-11-28T17:56:18.521Z,16.37
2023-11-28T17:59:24.931Z,18.23
2023-11-28T18:02:29.053Z,19.38
2023-11-28T18:05:36.819Z,20.88
2023-11-28T18:08:40.513Z,20.40
2023-11-28T18:11:44.027Z,19.93
2023-11-28T18:14:51.518Z,16.52
2023-11-28T18:17:55.319Z,17.42
2023-11-28T18:20:59.240Z,15.50
2023-11-28T18:24:02.799Z,16.57
2023-11-28T18:27:06.066Z,17.27
2023-11-28T18:30:12.225Z,13.52
2023-11-28T18:33:15.811Z,15.85
2023-11-28T18:36:21.970Z,14.52
2023-11-28T18:39:25.812Z,14.73
2023-11-28T18:42:29.203Z,12.90
2023-11-28T18:45:33.900Z,14.18
2023-11-28T18:48:37.380Z,16.83
2023-11-28T18:51:40.820Z,11.50
2023-11-28T18:54:44.177Z,15.23
2023-11-28T18:57:47.727Z,12.63
2023-11-28T19:00:54.960Z,12.27
2023-11-28T19:04:06.046Z,15.93
2023-11-28T19:07:11.867Z,16.17
2023-11-28T19:10:21.107Z,17.33
2023-11-28T19:13:25.834Z,15.80
2023-11-28T19:16:33.088Z,19.15
2023-11-28T19:19:39.442Z,17.30
2023-11-28T19:22:46.763Z,13.70
2023-11-28T19:25:52.775Z,14.03
2023-11-28T19:28:56.391Z,15.40
2023-11-28T19:32:01.476Z,16.30
2023-11-28T19:35:09.947Z,18.13
2023-11-28T19:38:13.882Z,16.42
2023-11-28T19:41:17.367Z,17.87
2023-11-28T19:44:20.820Z,18.10
2023-11-28T19:47:26.226Z,18.60
2023-11-28T19:50:29.946Z,17.63
2023-11-28T19:53:33.918Z,15.90
2023-11-28T19:56:43.159Z,14.67
2023-11-28T19:59:47.106Z,15.43
2023-11-28T20:02:55.029Z,20.65
2023-11-28T20:05:59.795Z,16.85
2023-11-28T20:09:05.099Z,20.15
2023-11-28T20:12:08.987Z,18.70
2023-11-28T20:15:14.725Z,17.73
2023-11-28T20:18:21.142Z,19.08
2023-11-28T20:21:29.512Z,15.80
2023-11-28T20:24:33.794Z,18.77
2023-11-28T20:27:37.121Z,19.83
2023-11-28T20:30:42.357Z,20.90
2023-11-28T20:33:47.259Z,20.80
2023-11-28T20:36:50.578Z,22.08
2023-11-28T20:39:54.167Z,21.35
2023-11-28T20:43:01.950Z,18.10
2023-11-28T20:46:10.343Z,22.00
2023-11-28T20:49:15.181Z,22.02
2023-11-28T20:52:18.705Z,22.05
2023-11-28T20:55:21.953Z,18.52
2023-11-28T20:58:25.644Z,20.27
2023-11-28T21:01:31.458Z,24.37
2023-11-28T21:04:36.345Z,19.23
2023-11-28T21:07:39.974Z,17.35
2023-11-28T21:10:44.195Z,22.92
2023-11-28T21:13:50.055Z,23.37
2023-11-28T21:16:56.611Z,19.30
2023-11-28T21:20:01.500Z,21.67
2023-11-28T21:23:04.848Z,19.75
2023-11-28T21:26:10.259Z,21.40
2023-11-28T21:29:13.554Z,20.47
2023-11-28T21:32:16.766Z,22.67
2023-11-28T21:35:24.282Z,21.95
2023-11-28T21:38:27.687Z,21.10
2023-11-28T21:41:31.051Z,19.08
2023-11-28T21:44:34.310Z,19.97
2023-11-28T21:47:37.677Z,18.70
2023-11-28T21:50:49.583Z,21.35
2023-11-28T21:53:52.849Z,22.45
2023-11-28T21:56:56.074Z,21.35
2023-11-28T21:59:59.297Z,16.60
2023-11-28T22:03:03.014Z,18.13
2023-11-28T22:06:08.407Z,20.15
2023-11-28T22:09:12.647Z,16.55
2023-11-28T22:12:15.940Z,14.60
2023-11-28T22:15:19.286Z,19.10
2023-11-28T22:18:22.560Z,21.50
2023-11-28T22:21:27.444Z,17.40
2023-11-28T22:24:33.180Z,16.55
2023-11-28T22:27:38.457Z,19.38
2023-11-28T22:30:45.072Z,15.17
2023-11-28T22:33:48.216Z,17.43
2023-11-28T22:36:52.784Z,18.52
2023-11-28T22:39:56.975Z,18.38
2023-11-28T22:43:00.143Z,18.65
2023-11-28T22:46:04.419Z,18.23
2023-11-28T22:49:07.992Z,14.90
2023-11-28T22:52:12.731Z,15.15
2023-11-28T22:55:16.016Z,13.15
2023-11-28T22:58:19.498Z,12.68
2023-11-28T23:01:23.551Z,14.40
2023-11-28T23:04:26.952Z,14.27
2023-11-28T23:07:31.558Z,12.52
2023-11-28T23:10:34.816Z,15.10
2023-11-28T23:13:38.369Z,15.02
2023-11-28T23:16:41.952Z,12.93
2023-11-28T23:19:45.170Z,12.97
2023-11-28T23:22:55.903Z,14.60
2023-11-28T23:26:02.786Z,14.20
2023-11-28T23:29:06.525Z,12.63
2023-11-28T23:32:09.868Z,12.13
2023-11-28T23:35:15.788Z,11.40
2023-11-28T23:38:20.532Z,11.60
2023-11-28T23:41:23.803Z,11.30
2023-11-28T23:44:27.087Z,11.27
2023-11-28T23:47:30.360Z,11.10
2023-11-28T23:50:33.657Z,13.87
2023-11-28T23:53:38.336Z,10.32
2023-11-28T23:56:41.897Z,11.52
2023-11-28T23:59:45.245Z,9.15
